Terminal Aerodrome Forecast
Issued by NWS

Home | Current Version | Previous Version | Text Only | Print | Product List | Glossary On
Versions: 1 2 3 4 5 6 7 8 9 10 11 12 13 14 15 16 17 18 19 20 21 22 23 24 25 26 27 28 29 30 31 32
970
FTUS44 KFWD 191732
TAFAFW
TAF
KAFW 191732Z 1918/2018 18015G25KT P6SM VCSH BKN025
     FM192200 18016G26KT P6SM -RA VCTS SCT030 BKN045CB
     FM200100 17018KT P6SM OVC018
     FM200700 17015G25KT P6SM -SHRA OVC015
      TEMPO 2008/2012 4SM TSRA OVC015CB
     FM201700 17015G25KT 6SM SHRA VCTS OVC025CB=

USA.gov is the U.S. government's official web portal to all federal, state and local government web resources and services.